Aviation Digital Data Service (ADDS)

Output produced by METARs form (1334 UTC 10 July 2020)
found at http://www.aviationweather.gov/metar/data/
 
KRWF 101120Z 1012/1112 30009KT P6SM BKN250 
     FM102000 28006KT P6SM FEW040 BKN090 
     FM110100 05005KT P6SM SCT040 BKN060 
     PROB30 1106/1110 TSRA BKN040CB
       
KMSP 101120Z 1012/1118 32004KT P6SM FEW250 
     FM101500 30010G16KT P6SM FEW050 SCT250 
     FM110600 30006KT P6SM SCT060 BKN090